createdAt,value
2024-03-24T00:04:11.732Z,0
2024-03-24T00:14:50.763Z,0
2024-03-24T00:20:10.667Z,0
2024-03-24T00:25:29.827Z,0
2024-03-24T00:30:49.497Z,0
2024-03-24T00:36:08.616Z,0
2024-03-24T00:41:27.441Z,0
2024-03-24T00:46:46.541Z,0
2024-03-24T00:52:05.244Z,0
2024-03-24T00:57:24.439Z,0
2024-03-24T01:09:18.355Z,0
2024-03-24T01:13:21.619Z,0
2024-03-24T01:18:40.694Z,0
2024-03-24T01:24:44.892Z,0
2024-03-24T01:30:03.708Z,0
2024-03-24T01:35:23.429Z,0
2024-03-24T01:40:43.080Z,0
2024-03-24T01:46:02.376Z,0
2024-03-24T01:51:21.748Z,0
2024-03-24T01:56:40.504Z,0
2024-03-24T02:01:59.735Z,0
2024-03-24T02:07:19.138Z,0
2024-03-24T02:12:38.262Z,0
2024-03-24T02:18:00.379Z,0
2024-03-24T02:28:35.838Z,0
2024-03-24T02:33:54.787Z,0
2024-03-24T02:39:14.080Z,0
2024-03-24T02:44:32.900Z,0
2024-03-24T02:49:52.912Z,0
2024-03-24T02:55:11.606Z,0
2024-03-24T03:00:30.909Z,0
2024-03-24T03:05:50.815Z,0
2024-03-24T03:11:10.334Z,0
2024-03-24T03:16:29.478Z,0
2024-03-24T03:21:49.266Z,0
2024-03-24T03:27:08.988Z,0
2024-03-24T03:32:28.667Z,0
2024-03-24T03:37:47.808Z,0
2024-03-24T03:43:07.145Z,0
2024-03-24T03:53:45.335Z,0
2024-03-24T03:59:04.922Z,0
2024-03-24T04:04:24.422Z,0
2024-03-24T04:09:43.394Z,0
2024-03-24T04:15:03.290Z,0
2024-03-24T04:20:22.314Z,0
2024-03-24T04:25:41.041Z,0
2024-03-24T04:31:00.579Z,0
2024-03-24T04:36:19.948Z,0
2024-03-24T04:46:58.622Z,0
2024-03-24T04:57:36.703Z,0
2024-03-24T05:02:55.947Z,0
2024-03-24T05:08:15.478Z,1
2024-03-24T05:13:35.065Z,9
2024-03-24T05:18:54.206Z,17.78
2024-03-24T05:29:32.315Z,18.56
2024-03-24T05:34:51.562Z,24.03
2024-03-24T05:40:10.751Z,22.15
2024-03-24T05:45:29.561Z,26.15
2024-03-24T05:50:48.851Z,25.72
2024-03-24T05:56:07.936Z,33.22
2024-03-24T06:01:27.212Z,35.86
2024-03-24T06:12:05.748Z,38.48
2024-03-24T06:17:24.776Z,34.94
2024-03-24T06:22:44.172Z,49.74
2024-03-24T06:28:03.049Z,70.86
2024-03-24T06:33:22.189Z,95.51
2024-03-24T06:38:41.731Z,103.17
2024-03-24T06:44:01.440Z,107.34
2024-03-24T06:49:20.873Z,101.22
2024-03-24T06:54:40.003Z,113.49
2024-03-24T06:59:59.202Z,117.25
2024-03-24T07:05:18.427Z,133.56
2024-03-24T07:10:38.155Z,122.07
2024-03-24T07:15:57.124Z,128.59
2024-03-24T07:21:16.484Z,125.67
2024-03-24T07:26:36.075Z,174.55
2024-03-24T07:31:54.949Z,183.22
2024-03-24T07:37:14.938Z,135.48
2024-03-24T07:42:33.402Z,114.62
2024-03-24T07:47:53.756Z,145.81
2024-03-24T07:53:11.892Z,220.12
2024-03-24T07:58:31.632Z,241.06
2024-03-24T08:03:50.913Z,127.41
2024-03-24T08:09:11.159Z,101.39
2024-03-24T08:14:28.769Z,154.46
2024-03-24T08:19:48.016Z,216.66
2024-03-24T08:25:06.978Z,211.83
2024-03-24T08:30:25.751Z,222.27
2024-03-24T08:35:45.501Z,195.56
2024-03-24T08:46:25.842Z,176.22
2024-03-24T08:51:44.769Z,341.95
2024-03-24T08:57:04.447Z,220.48
2024-03-24T09:02:24.694Z,143.45
2024-03-24T09:07:43.481Z,167.87
2024-03-24T09:18:22.368Z,156.34
2024-03-24T09:23:40.850Z,260.78
2024-03-24T09:29:00.647Z,116.14
2024-03-24T09:34:20.367Z,192.65
2024-03-24T09:44:58.050Z,221.99
2024-03-24T09:50:17.828Z,185.96
2024-03-24T09:55:36.099Z,142.29
2024-03-24T10:00:55.847Z,143.28
2024-03-24T10:06:14.681Z,143.81
2024-03-24T10:11:33.710Z,144.44
2024-03-24T10:16:53.302Z,199.75
2024-03-24T10:27:32.404Z,210.24
2024-03-24T10:32:51.933Z,123.53
2024-03-24T10:38:10.365Z,106.17
2024-03-24T10:43:29.940Z,103.11
2024-03-24T10:48:49.059Z,131.84
2024-03-24T10:54:08.093Z,92.75
2024-03-24T10:59:27.998Z,285.65
2024-03-24T11:04:47.372Z,468.8
2024-03-24T11:10:06.568Z,279.44
2024-03-24T11:15:25.849Z,128.71
2024-03-24T11:26:05.684Z,168.32
2024-03-24T11:36:43.605Z,188.59
2024-03-24T11:42:03.809Z,253.91
2024-03-24T11:47:21.684Z,99.92
2024-03-24T11:52:41.126Z,172.44
2024-03-24T11:58:00.754Z,204.49
2024-03-24T12:03:19.901Z,180.93
2024-03-24T12:08:38.389Z,154.49
2024-03-24T12:13:57.712Z,170.92
2024-03-24T12:19:17.065Z,152.79
2024-03-24T12:24:36.308Z,106.26
2024-03-24T12:29:54.944Z,218.03
2024-03-24T12:35:14.264Z,396.18
2024-03-24T12:40:33.078Z,377.11
2024-03-24T12:45:52.146Z,237.49
2024-03-24T12:51:11.876Z,364.44
2024-03-24T12:56:31.495Z,405.51
2024-03-24T13:01:50.792Z,201.57
2024-03-24T13:07:10.082Z,122.44
2024-03-24T13:17:49.004Z,159.49
2024-03-24T13:23:08.116Z,199.94
2024-03-24T13:28:27.516Z,108.47
2024-03-24T13:33:46.594Z,318.12
2024-03-24T13:44:24.367Z,304.37
2024-03-24T13:49:43.677Z,312.24
2024-03-24T13:55:04.971Z,314.45
2024-03-24T14:00:21.871Z,505.56
2024-03-24T14:05:41.394Z,170.69
2024-03-24T14:11:01.100Z,297.17
2024-03-24T14:16:20.329Z,162.12
2024-03-24T14:21:39.467Z,120.43
2024-03-24T14:26:58.746Z,140.38
2024-03-24T14:32:18.339Z,136.06
2024-03-24T14:42:56.906Z,104.58
2024-03-24T14:48:15.965Z,475.04
2024-03-24T14:53:35.381Z,417.86
2024-03-24T14:58:54.986Z,528.89
2024-03-24T15:04:14.080Z,506.19
2024-03-24T15:09:33.941Z,343.24
2024-03-24T15:14:54.249Z,204.58
2024-03-24T15:20:12.745Z,191.84
2024-03-24T15:25:32.355Z,211.79
2024-03-24T15:30:52.197Z,170.84
2024-03-24T15:41:30.091Z,134.06
2024-03-24T15:46:48.625Z,115.37
2024-03-24T15:52:07.507Z,86.31
2024-03-24T15:57:26.731Z,85.82
2024-03-24T16:02:45.838Z,77.28
2024-03-24T16:08:04.777Z,45.55
2024-03-24T16:13:24.258Z,49.19
2024-03-24T16:24:03.965Z,50.77
2024-03-24T16:29:22.894Z,31.24
2024-03-24T16:34:41.789Z,38.69
2024-03-24T16:40:00.256Z,53.38
2024-03-24T16:45:19.014Z,51.93
2024-03-24T16:50:38.295Z,39.36
2024-03-24T16:55:58.032Z,28.09
2024-03-24T17:06:36.465Z,26.38
2024-03-24T17:11:55.799Z,19
2024-03-24T17:22:34.658Z,16
2024-03-24T17:33:12.381Z,20.11
2024-03-24T17:38:31.539Z,0
2024-03-24T17:43:50.326Z,0
2024-03-24T17:49:09.844Z,0
2024-03-24T17:54:29.596Z,0
2024-03-24T17:59:48.745Z,0
2024-03-24T18:05:07.555Z,0
2024-03-24T18:15:46.887Z,0
2024-03-24T18:21:06.954Z,0
2024-03-24T18:26:25.428Z,0
2024-03-24T18:31:45.378Z,0
2024-03-24T18:42:24.411Z,0
2024-03-24T18:47:43.675Z,0
2024-03-24T18:53:02.938Z,0
2024-03-24T18:58:22.509Z,0
2024-03-24T19:03:41.962Z,0
2024-03-24T19:09:25.667Z,0
2024-03-24T19:14:44.663Z,0
2024-03-24T19:25:22.343Z,0
2024-03-24T19:30:42.280Z,0
2024-03-24T19:36:02.284Z,0
2024-03-24T19:41:20.343Z,0
2024-03-24T19:51:58.400Z,0
2024-03-24T19:57:18.034Z,0
2024-03-24T20:02:36.768Z,0
2024-03-24T20:07:56.644Z,0
2024-03-24T20:13:15.937Z,0
2024-03-24T20:18:35.544Z,0
2024-03-24T20:23:54.442Z,0
2024-03-24T20:29:13.988Z,0
2024-03-24T20:34:33.929Z,0
2024-03-24T20:39:52.716Z,0
2024-03-24T20:50:31.495Z,0
2024-03-24T20:55:50.546Z,0
2024-03-24T21:01:09.388Z,0
2024-03-24T21:06:29.124Z,0
2024-03-24T21:11:47.974Z,0
2024-03-24T21:17:07.479Z,0
2024-03-24T21:22:26.631Z,0
2024-03-24T21:27:45.669Z,0
2024-03-24T21:33:05.066Z,0
2024-03-24T21:38:24.012Z,0
2024-03-24T21:49:03.115Z,0
2024-03-24T21:54:21.731Z,0
2024-03-24T21:59:40.747Z,0
2024-03-24T22:05:00.183Z,0
2024-03-24T22:10:19.027Z,0
2024-03-24T22:15:38.239Z,0
2024-03-24T22:20:57.470Z,0
2024-03-24T22:26:16.701Z,0
2024-03-24T22:31:36.137Z,0
2024-03-24T22:36:55.161Z,0
2024-03-24T22:42:14.876Z,0
2024-03-24T22:47:34.309Z,0
2024-03-24T22:52:53.382Z,0
2024-03-24T22:58:12.401Z,0
2024-03-24T23:03:31.515Z,0
2024-03-24T23:08:50.690Z,0
2024-03-24T23:14:10.358Z,0
2024-03-24T23:19:29.269Z,0
2024-03-24T23:24:48.730Z,0
2024-03-24T23:30:07.610Z,0
2024-03-24T23:35:26.403Z,0
2024-03-24T23:40:46.039Z,0
2024-03-24T23:46:10.953Z,0
2024-03-24T23:51:25.052Z,0
2024-03-24T23:56:44.529Z,0
